Time;durP1;ratioP1;P1;durP2;ratioP2;P2;SDS_P1;SDS_P2;PMS_P1;PMS_P2;Temp;Humidity;BMP_temperature;BMP_pressure;BME280_temperature;BME280_humidity;BME280_pressure;Samples;Min_cycle;Max_cycle;Signal;HPM_P1;HPM_P2
2023/01/06 00:01:15;;;;;;;79.68;8.82;;;;;;;9.71;100.00;98529.19;4959287;28;20045;-55
2023/01/06 00:03:40;;;;;;;96.82;9.65;;;;;;;9.71;100.00;98508.41;4960406;28;20034;-55
2023/01/06 00:06:08;;;;;;;84.03;9.20;;;;;;;9.92;100.00;98519.81;4960068;28;20043;-56
2023/01/06 00:08:34;;;;;;;82.47;8.52;;;;;;;9.80;100.00;98511.94;4959830;28;20045;-56
2023/01/06 00:11:07;;;;;;;96.50;9.68;;;;;;;9.98;100.00;98499.06;4958311;28;20046;-55
2023/01/06 00:13:33;;;;;;;76.85;8.63;;;;;;;10.12;100.00;98498.28;4959888;28;20039;-55
2023/01/06 00:16:09;;;;;;;91.00;8.95;;;;;;;10.49;100.00;98497.69;4959601;28;20037;-54
2023/01/06 00:18:35;;;;;;;75.43;8.27;;;;;;;10.68;100.00;98493.44;4959741;28;20888;-54
2023/01/06 00:21:01;;;;;;;97.85;9.70;;;;;;;10.36;100.00;98496.72;4959105;28;20046;-59
2023/01/06 00:23:27;;;;;;;92.78;8.88;;;;;;;10.34;100.00;98494.09;4959676;28;20507;-54
2023/01/06 00:25:52;;;;;;;89.72;8.90;;;;;;;10.06;100.00;98488.72;4958944;28;20039;-53
2023/01/06 00:28:18;;;;;;;79.90;8.45;;;;;;;10.20;100.00;98490.56;4960711;28;20054;-54
2023/01/06 00:30:43;;;;;;;61.83;7.10;;;;;;;10.27;100.00;98485.41;4959763;28;20172;-55
2023/01/06 00:33:09;;;;;;;80.07;7.75;;;;;;;10.85;100.00;98485.72;4959159;28;20415;-54
2023/01/06 00:35:34;;;;;;;76.28;7.68;;;;;;;10.74;100.00;98477.88;4958865;28;20034;-54
2023/01/06 00:37:59;;;;;;;95.88;9.55;;;;;;;10.73;100.00;98486.50;4958859;28;20041;-56
2023/01/06 00:40:25;;;;;;;85.28;8.82;;;;;;;10.85;100.00;98479.63;4958281;28;20035;-54
2023/01/06 00:42:50;;;;;;;66.55;8.10;;;;;;;10.59;100.00;98485.59;4959415;28;20026;-54
2023/01/06 00:45:16;;;;;;;88.05;9.65;;;;;;;10.71;100.00;98483.03;4958747;28;20101;-53
2023/01/06 00:47:41;;;;;;;64.22;7.75;;;;;;;10.72;100.00;98484.78;4959712;28;20030;-54
2023/01/06 00:50:07;;;;;;;105.32;10.63;;;;;;;10.69;100.00;98479.56;4959220;28;20387;-55
2023/01/06 00:52:33;;;;;;;79.43;8.45;;;;;;;10.53;100.00;98486.44;4958782;28;20042;-55
2023/01/06 00:54:58;;;;;;;79.55;9.10;;;;;;;10.49;100.00;98493.34;4959768;28;20029;-54
2023/01/06 00:57:24;;;;;;;87.30;9.10;;;;;;;10.76;100.00;98486.53;4958127;28;20051;-53
2023/01/06 00:59:49;;;;;;;105.80;10.25;;;;;;;10.84;100.00;98488.31;4958321;28;20018;-55
2023/01/06 01:02:15;;;;;;;74.70;8.45;;;;;;;10.81;100.00;98481.34;4957793;28;20043;-54
2023/01/06 01:04:40;;;;;;;77.50;8.00;;;;;;;11.13;100.00;98485.78;4959153;28;20114;-53
2023/01/06 01:07:05;;;;;;;69.88;7.97;;;;;;;10.83;100.00;98476.16;4958677;28;20042;-54
2023/01/06 01:09:31;;;;;;;90.25;8.80;;;;;;;10.79;100.00;98478.75;4958710;28;20633;-54
2023/01/06 01:12:10;;;;;;;71.10;8.05;;;;;;;11.06;100.00;98478.81;4957435;28;20047;-56
2023/01/06 01:14:46;;;;;;;93.07;9.25;;;;;;;11.01;100.00;98476.22;4959236;28;20042;-55
2023/01/06 01:17:14;;;;;;;74.28;8.00;;;;;;;11.18;100.00;98475.38;4958871;28;20122;-54
2023/01/06 01:19:40;;;;;;;99.40;9.75;;;;;;;10.79;100.00;98475.25;4958724;28;20098;-56
2023/01/06 01:22:06;;;;;;;67.15;7.80;;;;;;;10.59;100.00;98472.59;4957900;28;20046;-54
2023/01/06 01:24:32;;;;;;;88.53;8.73;;;;;;;11.13;100.00;98469.31;4958564;28;20348;-56
2023/01/06 01:26:58;;;;;;;78.97;8.50;;;;;;;11.14;100.00;98473.63;4958365;28;20031;-55
2023/01/06 01:29:23;;;;;;;69.07;7.30;;;;;;;11.03;100.00;98471.00;4959169;28;20026;-56
2023/01/06 01:31:49;;;;;;;77.00;8.23;;;;;;;11.07;100.00;98476.22;4956740;28;20042;-56
2023/01/06 01:34:16;;;;;;;73.90;8.30;;;;;;;10.98;100.00;98470.97;4959484;28;20118;-55
2023/01/06 01:36:43;;;;;;;83.20;8.85;;;;;;;10.52;100.00;98469.97;4958498;28;20039;-53
2023/01/06 01:39:10;;;;;;;72.90;8.40;;;;;;;10.86;100.00;98476.16;4959069;28;20062;-53
2023/01/06 01:41:35;;;;;;;72.57;7.97;;;;;;;10.55;100.00;98464.75;4957100;28;20042;-54
2023/01/06 01:44:22;;;;;;;76.43;7.68;;;;;;;10.96;100.00;98466.66;4959104;28;20031;-54
2023/01/06 01:46:49;;;;;;;74.53;7.95;;;;;;;10.83;100.00;98465.75;4957523;28;20042;-55
2023/01/06 01:49:18;;;;;;;68.85;7.40;;;;;;;10.75;100.00;98463.97;4962638;28;20034;-54
2023/01/06 01:51:47;;;;;;;75.22;7.45;;;;;;;10.60;100.00;98464.78;4960855;28;20118;-57
2023/01/06 01:54:18;;;;;;;63.30;7.32;;;;;;;10.79;100.00;98459.66;4963028;28;20031;-54
2023/01/06 01:56:48;;;;;;;65.28;6.63;;;;;;;10.86;100.00;98465.75;4961815;28;20043;-53
2023/01/06 01:59:21;;;;;;;69.50;7.93;;;;;;;10.71;100.00;98462.22;4962342;28;20034;-54
2023/01/06 02:01:48;;;;;;;70.47;7.28;;;;;;;10.34;100.00;98455.09;4960913;28;20061;-54
2023/01/06 02:04:16;;;;;;;82.57;8.45;;;;;;;10.62;100.00;98457.00;4961459;28;20503;-56
2023/01/06 02:06:42;;;;;;;67.85;7.82;;;;;;;10.75;100.00;98453.56;4961839;28;20057;-54
2023/01/06 02:09:13;;;;;;;85.07;8.85;;;;;;;10.72;100.00;98450.94;4962479;28;20022;-54
2023/01/06 02:11:40;;;;;;;70.50;7.32;;;;;;;10.83;100.00;98444.94;4960886;28;20053;-54
2023/01/06 02:14:19;;;;;;;93.65;9.25;;;;;;;11.14;100.00;98443.25;4962131;28;20449;-54
2023/01/06 02:16:53;;;;;;;67.07;7.45;;;;;;;10.94;100.00;98441.50;4961841;28;20042;-54
2023/01/06 02:19:22;;;;;;;73.22;8.38;;;;;;;10.85;100.00;98438.00;4962135;28;20019;-57
2023/01/06 02:22:16;;;;;;;74.88;8.18;;;;;;;10.98;100.00;98442.34;4960613;28;20519;-54
2023/01/06 02:25:06;;;;;;;71.85;7.78;;;;;;;10.89;100.00;98443.22;4961866;28;20038;-54
2023/01/06 02:27:40;;;;;;;78.57;8.38;;;;;;;11.04;100.00;98441.50;4961640;28;20051;-54
2023/01/06 02:30:40;;;;;;;80.25;8.20;;;;;;;10.79;100.00;98437.13;4961532;28;20027;-54
2023/01/06 02:33:35;;;;;;;66.25;7.63;;;;;;;10.78;100.00;98439.72;4962161;28;20058;-57
2023/01/06 02:36:15;;;;;;;73.38;8.23;;;;;;;10.99;100.00;98428.47;4961698;28;20082;-55
2023/01/06 02:38:52;;;;;;;79.65;7.80;;;;;;;11.19;100.00;98430.25;4961513;28;20027;-53
2023/01/06 02:41:27;;;;;;;69.78;8.07;;;;;;;10.83;100.00;98424.97;4960554;28;20042;-57
2023/01/06 02:44:11;;;;;;;77.85;8.52;;;;;;;10.86;100.00;98416.28;4961712;28;20117;-54
2023/01/06 02:46:42;;;;;;;85.55;9.05;;;;;;;10.74;100.00;98420.63;4960897;28;20161;-54
2023/01/06 02:49:59;;;;;;;67.30;8.13;;;;;;;10.89;100.00;98414.59;4961778;28;20022;-52
2023/01/06 02:52:24;;;;;;;81.10;8.02;;;;;;;10.93;100.00;98405.03;4954910;28;20221;-55
2023/01/06 02:54:59;;;;;;;74.97;8.52;;;;;;;10.72;100.00;98414.53;4961282;28;20109;-54
2023/01/06 02:57:27;;;;;;;67.82;7.47;;;;;;;10.98;100.00;98411.13;4960788;28;20921;-54
2023/01/06 03:00:02;;;;;;;97.85;9.50;;;;;;;10.81;100.00;98406.75;4949452;28;20842;-55
2023/01/06 03:02:30;;;;;;;74.90;7.82;;;;;;;10.60;100.00;98412.78;4960533;28;20047;-55
2023/01/06 03:04:59;;;;;;;69.07;8.55;;;;;;;10.73;100.00;98413.66;4960399;28;20033;-53
2023/01/06 03:07:27;;;;;;;80.03;8.77;;;;;;;10.98;100.00;98421.53;4960902;28;20560;-53
2023/01/06 03:09:54;;;;;;;109.97;10.55;;;;;;;11.00;100.00;98412.00;4960513;28;20042;-54
2023/01/06 03:12:43;;;;;;;68.85;7.63;;;;;;;10.83;100.00;98418.91;4960471;28;20413;-54
2023/01/06 03:15:09;;;;;;;64.15;7.40;;;;;;;10.53;100.00;98411.88;4960795;28;20081;-55
2023/01/06 03:17:34;;;;;;;76.90;7.68;;;;;;;10.96;100.00;98410.25;4961575;28;20097;-53
2023/01/06 03:20:00;;;;;;;99.85;10.30;;;;;;;11.01;100.00;98416.34;4957801;28;20030;-53
2023/01/06 03:22:26;;;;;;;70.43;7.70;;;;;;;10.78;100.00;98417.16;4960162;28;20562;-53
2023/01/06 03:24:52;;;;;;;73.40;8.30;;;;;;;10.90;100.00;98411.13;4960902;28;20065;-53
2023/01/06 03:27:21;;;;;;;67.07;7.70;;;;;;;11.09;100.00;98418.09;4960419;28;20153;-54
2023/01/06 03:29:47;;;;;;;90.10;9.82;;;;;;;10.96;100.00;98414.59;4958768;28;20699;-53
2023/01/06 03:32:25;;;;;;;77.30;8.57;;;;;;;11.11;100.00;98414.63;4960025;28;20630;-53
2023/01/06 03:34:53;;;;;;;64.07;8.25;;;;;;;11.30;100.00;98412.91;4961437;28;20027;-54
2023/01/06 03:37:39;;;;;;;78.35;8.75;;;;;;;10.92;100.00;98411.13;4960081;28;20062;-55
2023/01/06 03:40:09;;;;;;;72.88;8.57;;;;;;;11.25;100.00;98406.81;4959172;28;20108;-54
2023/01/06 03:45:39;;;;;;;61.60;7.18;;;;;;;11.05;100.00;98404.19;4959555;28;20081;-54
2023/01/06 03:48:14;;;;;;;65.07;7.40;;;;;;;11.06;100.00;98406.81;4960654;28;20054;-58
2023/01/06 03:50:49;;;;;;;69.45;8.57;;;;;;;10.98;100.00;98398.09;4958904;28;20039;-57
2023/01/06 03:53:33;;;;;;;79.30;8.32;;;;;;;11.18;100.00;98402.47;4959882;28;20069;-55
2023/01/06 03:56:30;;;;;;;58.80;7.30;;;;;;;11.24;100.00;98399.03;4960559;28;20138;-56
2023/01/06 03:59:04;;;;;;;67.32;7.80;;;;;;;11.38;100.00;98402.50;4961120;28;20035;-56
2023/01/06 04:01:31;;;;;;;93.40;9.77;;;;;;;11.53;100.00;98401.63;4958017;28;20405;-54
2023/01/06 04:03:57;;;;;;;61.40;8.27;;;;;;;11.52;100.00;98394.69;4960922;28;20145;-55
2023/01/06 04:06:22;;;;;;;63.33;8.30;;;;;;;11.36;100.00;98398.16;4959645;28;20039;-56
2023/01/06 04:08:48;;;;;;;74.95;9.25;;;;;;;11.08;100.00;98393.78;4960322;28;20125;-58
2023/01/06 04:13:58;;;;;;;70.65;8.43;;;;;;;11.28;100.00;98385.97;4960688;28;20046;-55
2023/01/06 04:16:24;;;;;;;74.15;8.48;;;;;;;11.38;100.00;98386.84;4959900;28;20140;-57
2023/01/06 04:18:49;;;;;;;70.53;8.00;;;;;;;11.29;100.00;98382.50;4959620;28;20143;-55
2023/01/06 04:21:14;;;;;;;65.70;7.90;;;;;;;11.33;100.00;98373.81;4958369;28;20133;-54
2023/01/06 04:23:40;;;;;;;87.85;9.43;;;;;;;11.45;100.00;98367.75;4959938;28;20078;-57
2023/01/06 04:26:05;;;;;;;60.25;7.78;;;;;;;11.22;100.00;98369.50;4960138;28;20628;-54
2023/01/06 04:28:30;;;;;;;65.05;7.95;;;;;;;11.14;100.00;98372.09;4960160;28;20057;-55
2023/01/06 04:30:57;;;;;;;79.00;9.07;;;;;;;11.18;100.00;98366.88;4958219;28;20037;-56
2023/01/06 04:33:23;;;;;;;64.00;8.10;;;;;;;11.27;100.00;98365.16;4960079;28;20022;-55
2023/01/06 04:35:48;;;;;;;84.78;9.27;;;;;;;11.09;100.00;98366.88;4959511;28;20045;-56
2023/01/06 04:38:13;;;;;;;70.50;8.23;;;;;;;11.28;100.00;98362.56;4959534;28;20145;-56
2023/01/06 04:40:41;;;;;;;74.68;8.90;;;;;;;11.42;100.00;98364.28;4959748;28;20046;-53
2023/01/06 04:43:06;;;;;;;75.57;8.73;;;;;;;11.48;100.00;98356.47;4959015;28;20555;-52
2023/01/06 04:45:35;;;;;;;72.47;8.55;;;;;;;11.65;100.00;98352.97;4959271;28;20050;-54
2023/01/06 04:48:00;;;;;;;78.47;8.70;;;;;;;11.67;100.00;98357.31;4959516;28;20027;-52
2023/01/06 04:50:26;;;;;;;67.47;7.25;;;;;;;11.43;100.00;98355.63;4958645;28;20027;-52
2023/01/06 04:52:51;;;;;;;75.90;8.63;;;;;;;11.56;100.00;98354.72;4958920;28;20054;-54
2023/01/06 04:55:16;;;;;;;59.85;7.97;;;;;;;11.50;100.00;98346.91;4958696;28;20122;-56
2023/01/06 04:57:42;;;;;;;66.80;8.38;;;;;;;11.38;100.00;98350.41;4959977;28;20023;-56
2023/01/06 05:00:08;;;;;;;76.05;9.23;;;;;;;11.42;100.00;98362.56;4958692;28;20034;-54
2023/01/06 05:02:33;;;;;;;60.80;8.23;;;;;;;11.74;100.00;98358.16;4958729;28;20051;-53
2023/01/06 05:04:58;;;;;;;63.05;8.07;;;;;;;11.79;100.00;98350.31;4959044;28;20035;-54
2023/01/06 05:07:24;;;;;;;54.63;7.40;;;;;;;11.81;100.00;98359.88;4958946;28;20614;-54
2023/01/06 05:09:49;;;;;;;86.30;9.18;;;;;;;11.63;100.00;98359.91;4958628;28;20400;-55
2023/01/06 05:12:14;;;;;;;76.95;9.18;;;;;;;11.65;100.00;98361.66;4956933;28;20062;-54
2023/01/06 05:14:40;;;;;;;64.50;8.13;;;;;;;11.68;100.00;98358.16;4959739;28;20494;-54
2023/01/06 05:17:05;;;;;;;69.30;8.38;;;;;;;11.41;100.00;98358.22;4958643;28;20074;-54
2023/01/06 05:19:31;;;;;;;72.50;8.40;;;;;;;11.30;100.00;98354.75;4959042;28;20153;-55
2023/01/06 05:21:56;;;;;;;65.15;8.23;;;;;;;11.18;100.00;98350.41;4957468;28;20162;-55
2023/01/06 05:24:21;;;;;;;82.13;9.20;;;;;;;11.00;100.00;98349.53;4959055;28;20105;-57
2023/01/06 05:26:47;;;;;;;62.38;7.88;;;;;;;11.26;100.00;98346.06;4958436;28;20805;-57
2023/01/06 05:29:16;;;;;;;64.35;7.97;;;;;;;11.07;100.00;98343.44;4959226;28;20029;-57
2023/01/06 05:31:42;;;;;;;64.97;7.80;;;;;;;11.14;100.00;98346.06;4956881;28;20031;-54
2023/01/06 05:34:09;;;;;;;60.63;8.02;;;;;;;11.24;100.00;98337.38;4959163;28;20405;-54
2023/01/06 05:36:35;;;;;;;64.10;7.85;;;;;;;11.14;100.00;98338.25;4958452;28;20549;-54
2023/01/06 05:39:00;;;;;;;65.28;7.90;;;;;;;11.05;100.00;98341.72;4958928;28;20536;-54
2023/01/06 05:41:25;;;;;;;65.10;7.90;;;;;;;10.98;100.00;98340.84;4956899;28;20069;-54
2023/01/06 05:43:51;;;;;;;64.65;7.45;;;;;;;10.87;100.00;98342.59;4959090;28;20030;-54
2023/01/06 05:46:16;;;;;;;64.60;7.47;;;;;;;11.01;100.00;98340.84;4958352;28;20753;-54
2023/01/06 05:48:41;;;;;;;75.65;8.52;;;;;;;11.33;100.00;98333.91;4958697;28;20101;-56
2023/01/06 05:51:10;;;;;;;83.05;8.40;;;;;;;11.37;100.00;98332.16;4956988;28;20085;-54
2023/01/06 05:53:38;;;;;;;71.90;7.63;;;;;;;11.38;100.00;98339.09;4958792;28;20042;-54
2023/01/06 05:56:06;;;;;;;69.32;7.40;;;;;;;11.36;100.00;98335.66;4957866;28;20062;-54
2023/01/06 05:58:32;;;;;;;59.35;6.65;;;;;;;11.48;100.00;98334.75;4958791;28;20113;-57
2023/01/06 06:01:01;;;;;;;78.97;8.43;;;;;;;11.71;100.00;98333.00;4957066;28;20038;-55
2023/01/06 06:03:26;;;;;;;60.75;7.53;;;;;;;11.49;100.00;98324.34;4959026;28;20039;-54
2023/01/06 06:05:52;;;;;;;68.28;7.45;;;;;;;11.41;100.00;98334.78;4958376;28;20099;-54
2023/01/06 06:08:18;;;;;;;57.53;7.20;;;;;;;11.33;100.00;98326.09;4958878;28;20081;-56
2023/01/06 06:10:43;;;;;;;67.90;7.55;;;;;;;11.75;100.00;98328.63;4957540;28;20102;-54
2023/01/06 06:13:09;;;;;;;56.80;7.45;;;;;;;11.67;100.00;98328.66;4958039;28;20600;-53
2023/01/06 06:15:34;;;;;;;57.05;6.75;;;;;;;11.46;100.00;98321.72;4958565;28;20038;-54
2023/01/06 06:18:02;;;;;;;80.70;8.52;;;;;;;11.43;100.00;98319.16;4958521;28;20070;-54
2023/01/06 06:20:28;;;;;;;63.70;7.15;;;;;;;11.64;100.00;98319.97;4957544;28;20042;-54
2023/01/06 06:22:54;;;;;;;64.90;7.20;;;;;;;11.51;100.00;98329.56;4958328;28;20026;-54
2023/01/06 06:25:19;;;;;;;52.00;6.68;;;;;;;11.66;100.00;98326.06;4957949;28;22001;-54
2023/01/06 06:27:45;;;;;;;55.05;6.97;;;;;;;11.81;100.00;98325.13;4959079;28;20192;-54
2023/01/06 06:30:10;;;;;;;67.97;7.63;;;;;;;11.47;100.00;98323.47;4957185;28;20863;-55
2023/01/06 06:32:36;;;;;;;65.10;6.85;;;;;;;11.26;100.00;98322.63;4957996;28;20031;-55
2023/01/06 06:35:01;;;;;;;65.88;7.22;;;;;;;11.56;100.00;98322.59;4960183;28;20030;-54
2023/01/06 06:37:26;;;;;;;72.72;7.93;;;;;;;11.17;100.00;98330.47;4961493;28;20035;-54
2023/01/06 06:39:52;;;;;;;83.47;8.63;;;;;;;11.29;100.00;98335.63;4961218;28;20536;-53
2023/01/06 06:42:17;;;;;;;80.63;8.52;;;;;;;11.39;100.00;98333.06;4960218;28;20042;-54
2023/01/06 06:44:42;;;;;;;61.63;7.43;;;;;;;11.05;100.00;98337.41;4961718;28;20035;-54
2023/01/06 06:47:08;;;;;;;69.72;7.75;;;;;;;11.24;100.00;98333.94;4960993;28;20078;-54
2023/01/06 06:49:33;;;;;;;72.30;7.97;;;;;;;11.45;100.00;98338.25;4961192;28;20057;-55
2023/01/06 06:51:58;;;;;;;55.08;7.13;;;;;;;11.36;100.00;98340.84;4960239;28;20058;-53
2023/01/06 06:54:24;;;;;;;73.20;8.27;;;;;;;11.26;100.00;98335.66;4961539;28;20061;-54
2023/01/06 06:56:49;;;;;;;66.72;7.50;;;;;;;11.41;100.00;98340.00;4960751;28;20066;-53
2023/01/06 06:59:14;;;;;;;74.13;7.85;;;;;;;11.45;100.00;98339.13;4962477;28;20078;-53
2023/01/06 07:01:40;;;;;;;75.75;7.97;;;;;;;11.23;100.00;98342.59;4959417;28;20051;-55
2023/01/06 07:04:05;;;;;;;46.58;5.70;;;;;;;11.59;100.00;98343.44;4961578;28;20046;-52
2023/01/06 07:06:31;;;;;;;61.75;7.03;;;;;;;11.40;100.00;98345.19;4960386;28;20066;-53
2023/01/06 07:08:56;;;;;;;52.53;5.95;;;;;;;11.26;100.00;98355.63;4961208;28;20089;-52
2023/01/06 07:11:22;;;;;;;57.55;6.68;;;;;;;11.23;100.00;98356.47;4960124;28;20086;-53
2023/01/06 07:13:48;;;;;;;66.25;6.93;;;;;;;11.42;100.00;98351.25;4961263;28;20777;-54
2023/01/06 07:16:13;;;;;;;62.85;7.35;;;;;;;11.57;100.00;98356.47;4960989;28;20042;-54
2023/01/06 07:18:39;;;;;;;59.35;6.47;;;;;;;11.27;100.00;98363.44;4961159;28;20077;-54
2023/01/06 07:21:05;;;;;;;79.10;7.32;;;;;;;11.24;100.00;98360.81;4959136;28;20054;-53
2023/01/06 07:23:31;;;;;;;58.80;5.70;;;;;;;11.07;100.00;98369.47;4961492;28;20031;-53
2023/01/06 07:25:59;;;;;;;75.35;6.80;;;;;;;11.25;100.00;98364.31;4959803;28;20043;-55
2023/01/06 07:28:26;;;;;;;59.55;5.85;;;;;;;11.18;100.00;98366.88;4961318;28;20476;-52
2023/01/06 07:30:51;;;;;;;64.82;5.97;;;;;;;11.31;100.00;98359.94;4959485;28;20149;-55
2023/01/06 07:33:18;;;;;;;56.53;5.68;;;;;;;11.26;100.00;98361.69;4960773;28;20948;-56
2023/01/06 07:35:43;;;;;;;72.65;6.55;;;;;;;11.31;100.00;98359.94;4960213;28;20158;-53
2023/01/06 07:38:09;;;;;;;66.38;6.38;;;;;;;11.43;100.00;98369.50;4960789;28;20287;-54
2023/01/06 07:40:35;;;;;;;61.45;6.28;;;;;;;11.61;100.00;98372.09;4959440;28;20042;-53
2023/01/06 07:43:05;;;;;;;77.10;7.25;;;;;;;11.48;100.00;98366.91;4960547;28;20041;-55
2023/01/06 07:45:32;;;;;;;66.32;6.25;;;;;;;11.36;100.00;98374.72;4960080;28;20066;-53
2023/01/06 07:47:57;;;;;;;59.88;6.28;;;;;;;11.36;100.00;98382.53;4960204;28;20034;-53
2023/01/06 07:50:23;;;;;;;55.30;5.53;;;;;;;11.46;100.00;98376.44;4959479;28;20023;-54
2023/01/06 07:52:48;;;;;;;67.15;6.30;;;;;;;11.43;100.00;98384.28;4959647;28;20061;-53
2023/01/06 07:55:13;;;;;;;68.75;6.25;;;;;;;11.38;100.00;98373.84;4958636;28;20046;-53
2023/01/06 07:57:39;;;;;;;58.28;5.82;;;;;;;11.51;100.00;98372.06;4960347;28;20717;-54
2023/01/06 08:00:04;;;;;;;67.18;6.35;;;;;;;11.65;100.00;98371.22;4959872;28;20031;-54
2023/01/06 08:02:30;;;;;;;61.33;5.93;;;;;;;11.55;100.00;98376.41;4959727;28;20685;-54
2023/01/06 08:04:55;;;;;;;55.53;5.70;;;;;;;11.68;100.00;98372.06;4960221;28;20038;-54
2023/01/06 08:07:21;;;;;;;76.43;6.43;;;;;;;11.92;100.00;98367.66;4959371;28;20046;-54
2023/01/06 08:09:46;;;;;;;83.47;7.43;;;;;;;11.98;100.00;98367.66;4959693;28;20042;-54
2023/01/06 08:12:11;;;;;;;61.65;6.35;;;;;;;12.16;100.00;98367.63;4959336;28;20440;-53
2023/01/06 08:14:37;;;;;;;55.25;6.22;;;;;;;11.95;100.00;98367.66;4960741;28;20570;-53
2023/01/06 08:17:02;;;;;;;58.05;5.72;;;;;;;11.84;100.00;98372.06;4959617;28;20046;-54
2023/01/06 08:19:28;;;;;;;77.00;6.85;;;;;;;11.82;100.00;98372.06;4960060;28;20551;-53
2023/01/06 08:21:53;;;;;;;54.67;5.43;;;;;;;11.70;100.00;98377.28;4957783;28;20541;-55
2023/01/06 08:24:18;;;;;;;63.72;5.90;;;;;;;11.74;100.00;98373.81;4960908;28;20066;-56
2023/01/06 08:26:44;;;;;;;52.05;5.78;;;;;;;11.64;100.00;98361.66;4959457;28;20584;-54
2023/01/06 08:29:09;;;;;;;64.30;6.65;;;;;;;11.82;100.00;98364.22;4959788;28;20299;-54
2023/01/06 08:31:34;;;;;;;62.75;7.32;;;;;;;11.73;100.00;98369.44;4958231;28;20074;-54
2023/01/06 08:34:00;;;;;;;63.22;6.30;;;;;;;11.92;100.00;98367.66;4959866;28;20026;-54
2023/01/06 08:36:26;;;;;;;50.17;5.72;;;;;;;11.98;100.00;98364.19;4958548;28;20053;-53
2023/01/06 08:38:52;;;;;;;59.60;6.07;;;;;;;12.04;100.00;98372.00;4959042;28;20500;-56
2023/01/06 08:41:18;;;;;;;64.90;6.18;;;;;;;12.09;100.00;98374.59;4956271;28;20035;-53
2023/01/06 08:43:45;;;;;;;83.35;8.15;;;;;;;12.19;100.00;98368.50;4959516;28;20118;-55
2023/01/06 08:46:14;;;;;;;64.40;5.90;;;;;;;12.04;100.00;98373.72;4958546;28;20062;-55
2023/01/06 08:48:40;;;;;;;80.90;6.80;;;;;;;12.10;100.00;98372.00;4959017;28;20122;-53
2023/01/06 08:51:09;;;;;;;96.00;7.63;;;;;;;12.27;100.00;98372.78;4958268;28;20045;-53
2023/01/06 08:53:35;;;;;;;69.60;5.97;;;;;;;12.18;100.00;98361.53;4960219;28;20522;-56
2023/01/06 08:56:01;;;;;;;73.00;6.60;;;;;;;12.21;100.00;98360.69;4959008;28;20039;-54
2023/01/06 08:58:26;;;;;;;60.28;5.80;;;;;;;12.40;100.00;98361.44;4959079;28;20042;-54
2023/01/06 09:00:52;;;;;;;67.10;5.78;;;;;;;12.41;100.00;98370.13;4957891;28;20520;-53
2023/01/06 09:03:17;;;;;;;60.17;5.68;;;;;;;12.18;100.00;98368.50;4958636;28;20037;-56
2023/01/06 09:05:43;;;;;;;64.63;5.75;;;;;;;12.18;100.00;98376.31;4959059;28;20050;-53
2023/01/06 09:08:09;;;;;;;68.68;5.97;;;;;;;12.22;100.00;98372.84;4959465;28;20035;-52
2023/01/06 09:10:38;;;;;;;56.55;5.15;;;;;;;12.02;100.00;98385.91;4958387;28;20037;-55
2023/01/06 09:13:03;;;;;;;76.05;6.63;;;;;;;12.33;100.00;98397.09;4955076;28;20027;-55
2023/01/06 09:15:29;;;;;;;60.38;5.43;;;;;;;12.24;100.00;98391.94;4957777;28;20041;-56
2023/01/06 09:17:55;;;;;;;41.53;4.75;;;;;;;12.32;100.00;98395.38;4958594;28;20065;-55
2023/01/06 09:20:20;;;;;;;57.80;5.90;;;;;;;12.23;100.00;98390.22;4957303;28;20555;-57
2023/01/06 09:22:45;;;;;;;64.10;5.75;;;;;;;12.03;100.00;98385.88;4956514;28;20049;-54
2023/01/06 09:25:11;;;;;;;69.72;6.53;;;;;;;12.25;100.00;98388.44;4958068;28;20062;-56
2023/01/06 09:27:36;;;;;;;61.22;5.90;;;;;;;12.20;100.00;98395.41;4958605;28;20035;-56
2023/01/06 09:30:03;;;;;;;73.18;6.57;;;;;;;12.00;100.00;98401.56;4958331;28;20046;-56
2023/01/06 09:32:28;;;;;;;80.43;7.22;;;;;;;12.15;100.00;98402.41;4957699;28;20039;-56
2023/01/06 09:34:54;;;;;;;66.25;6.20;;;;;;;12.30;100.00;98402.38;4957823;28;20104;-56
2023/01/06 09:37:19;;;;;;;70.72;7.00;;;;;;;12.33;100.00;98409.31;4958360;28;20035;-56
2023/01/06 09:39:44;;;;;;;110.63;9.27;;;;;;;12.40;100.00;98416.22;4955451;28;20034;-53
2023/01/06 09:42:42;;;;;;;56.95;6.35;;;;;;;12.23;100.00;98418.88;4956903;28;20049;-56
2023/01/06 09:45:13;;;;;;;72.63;7.05;;;;;;;12.21;100.00;98424.09;4945954;28;20039;-55
2023/01/06 09:47:45;;;;;;;68.95;6.85;;;;;;;12.27;100.00;98415.41;4958166;28;20923;-57
2023/01/06 09:50:17;;;;;;;54.92;5.90;;;;;;;12.22;100.00;98417.16;4957343;28;20039;-53
2023/01/06 09:52:48;;;;;;;63.30;6.30;;;;;;;12.37;100.00;98422.31;4958020;28;20356;-55
2023/01/06 09:55:22;;;;;;;57.75;5.80;;;;;;;12.28;100.00;98411.91;4958912;28;20030;-54
2023/01/06 09:57:56;;;;;;;76.88;6.78;;;;;;;12.17;100.00;98416.31;4958692;28;20077;-55
2023/01/06 10:00:42;;;;;;;54.97;6.38;;;;;;;12.03;100.00;98406.72;4957398;28;20608;-55
2023/01/06 10:03:21;;;;;;;57.20;6.53;;;;;;;12.08;100.00;98406.78;4957811;28;20037;-54
2023/01/06 10:06:04;;;;;;;77.30;7.50;;;;;;;12.09;100.00;98406.78;4957983;28;20091;-54
2023/01/06 10:08:48;;;;;;;52.58;5.90;;;;;;;12.41;100.00;98409.25;4957448;28;20448;-55
2023/01/06 10:11:24;;;;;;;64.97;5.78;;;;;;;12.39;100.00;98400.59;4959151;28;20047;-54
2023/01/06 10:14:07;;;;;;;78.05;7.38;;;;;;;12.55;100.00;98394.41;4959554;28;20114;-54
2023/01/06 10:16:38;;;;;;;57.00;5.72;;;;;;;12.72;100.00;98388.22;4959588;28;20125;-53
2023/01/06 10:19:16;;;;;;;59.33;5.50;;;;;;;12.54;100.00;98389.22;4959847;28;20045;-54
2023/01/06 10:21:55;;;;;;;55.53;5.75;;;;;;;13.04;100.00;98381.97;4960117;28;20102;-55
2023/01/06 10:25:05;;;;;;;54.60;5.72;;;;;;;12.92;100.00;98382.88;4962031;28;20035;-55
2023/01/06 10:27:40;;;;;;;66.78;6.43;;;;;;;12.99;100.00;98378.53;4946257;28;20085;-55
2023/01/06 10:30:17;;;;;;;75.90;6.82;;;;;;;12.93;100.00;98370.72;4957614;28;20096;-53
2023/01/06 10:32:46;;;;;;;82.32;6.93;;;;;;;12.89;100.00;98365.50;4958283;28;20087;-56
2023/01/06 10:35:14;;;;;;;70.20;6.68;;;;;;;12.89;100.00;98368.13;4960061;28;20081;-53
2023/01/06 10:37:42;;;;;;;44.13;4.90;;;;;;;13.18;100.00;98366.16;4961591;28;20247;-58
2023/01/06 10:40:17;;;;;;;73.63;6.68;;;;;;;13.59;100.00;98353.66;4959867;28;20049;-55
2023/01/06 10:43:05;;;;;;;50.15;4.70;;;;;;;13.57;100.00;98350.19;4961184;28;20046;-57
2023/01/06 10:45:45;;;;;;;57.05;5.55;;;;;;;13.52;100.00;98339.78;4961187;28;20266;-53
2023/01/06 10:48:19;;;;;;;66.75;6.30;;;;;;;13.84;100.00;98337.72;4961628;28;20540;-54
2023/01/06 10:50:45;;;;;;;52.10;5.22;;;;;;;13.66;100.00;98328.34;4959754;28;20113;-53
2023/01/06 10:53:13;;;;;;;58.95;5.53;;;;;;;13.53;100.00;98338.91;4962115;28;20038;-53
2023/01/06 10:55:52;;;;;;;49.40;5.15;;;;;;;13.56;100.00;98339.75;4961302;28;20030;-53
2023/01/06 10:58:30;;;;;;;78.95;7.63;;;;;;;13.56;100.00;98355.44;4960058;28;21096;-56
2023/01/06 11:00:58;;;;;;;60.40;5.93;;;;;;;13.14;100.00;98339.22;4956637;28;20046;-56
2023/01/06 11:03:25;;;;;;;59.63;5.90;;;;;;;13.39;100.00;98344.22;4959607;28;20053;-55
2023/01/06 11:06:07;;;;;;;54.08;5.32;;;;;;;13.26;100.00;98350.44;4960972;28;20041;-54
2023/01/06 11:08:34;;;;;;;;;;;;;;;13.23;100.00;98346.13;4961518;28;20094;-56
2023/01/06 11:11:00;;;;;;;71.43;6.80;;;;;;;12.99;100.00;98355.03;4959566;28;19918;-55
2023/01/06 11:13:35;;;;;;;47.60;5.55;;;;;;;13.21;100.00;98347.88;4961169;28;20390;-56
2023/01/06 11:16:15;;;;;;;52.10;5.63;;;;;;;13.29;100.00;98350.44;4960816;28;20125;-58
2023/01/06 11:18:41;;;;;;;59.45;5.93;;;;;;;13.06;100.00;98343.63;4960409;28;20033;-55
2023/01/06 11:21:10;;;;;;;76.03;6.40;;;;;;;13.21;100.00;98344.41;4958900;28;20400;-54
2023/01/06 11:23:37;;;;;;;46.35;4.63;;;;;;;13.12;100.00;98329.66;4960876;28;20031;-53
2023/01/06 11:26:21;;;;;;;55.55;5.28;;;;;;;13.25;100.00;98335.66;4960512;28;20030;-55
2023/01/06 11:28:52;;;;;;;82.30;7.05;;;;;;;13.06;100.00;98333.19;4957970;28;20138;-54
2023/01/06 11:31:21;;;;;;;55.85;5.32;;;;;;;13.05;100.00;98346.25;4957655;28;20167;-56